Gene Dunlap — WAS2433 — position and weather

sailwx.info

Track history (hours):
 
Tides and Currents Weather Stations Pressure Air Temp Water Temp Dewpoint Dewpoint Depression Visibility Wind Speed Wind Dir Waves Ship Positions

Gene Dunlap

Owner: DUNLAP TOWING CO, LA CONNER, WA. More information available from US FCC via Universal Licensing System and Coast Guard Vessel Documentation Center.

Last reported at 2017-Oct-10 05:21 UTC. Time now 2017-Oct-17 22:32 UTC.
Position N 45°19' W 124°05'.

Type: Tow > 200 m length. MMSI: 367472000.

Date/timePositionNaut miles runAvg speedWind from/ knotsBaromVisibWave heightAir tempDewpointWater temp
2017-Oct-10 05:21N 45°19' W 124°05'3 7.9
2017-Oct-10 05:00N 45°21' W 124°05'4 7.8
2017-Oct-10 04:29N 45°26' W 124°05'5 8.0
2017-Oct-10 03:50N 45°31' W 124°04'3 8.1
2017-Oct-10 03:30N 45°33' W 124°04'5 8.0
2017-Oct-10 02:56N 45°38' W 124°05'3 7.9
2017-Oct-10 02:30N 45°41' W 124°05'4 8.1
2017-Oct-10 02:00N 45°45' W 124°06'7 7.9
2017-Oct-10 01:11N 45°52' W 124°07'1 8.0
2017-Oct-10 01:01N 45°53' W 124°07'4 7.9
2017-Oct-10 00:30N 45°57' W 124°08'4 8.0
2017-Oct-10 00:00N 46°01' W 124°09'4 7.7
2017-Oct-09 23:30N 46°05' W 124°09'4 7.7
2017-Oct-09 23:00N 46°09' W 124°10'4 7.9
2017-Oct-09 22:30N 46°11' W 124°14'4 7.4
2017-Oct-09 22:00N 46°14' W 124°17'4 7.8
2017-Oct-09 21:30N 46°18' W 124°19'4 7.8
2017-Oct-09 21:00N 46°22' W 124°20'4 8.0
2017-Oct-09 20:30N 46°26' W 124°21'4 8.0
2017-Oct-09 20:00N 46°30' W 124°23'4 8.0
2017-Oct-09 19:31N 46°33' W 124°24'4 8.0
2017-Oct-09 19:00N 46°37' W 124°25'4 8.0
2017-Oct-09 18:31N 46°41' W 124°26'4 7.8
2017-Oct-09 18:01N 46°45' W 124°27'4 7.9
2017-Oct-09 17:30N 46°49' W 124°28'4 7.8
2017-Oct-09 17:00N 46°53' W 124°29'4 7.8
2017-Oct-09 16:30N 46°57' W 124°30'4 7.4
2017-Oct-09 16:00N 47°00' W 124°32'4 7.3
2017-Oct-09 15:30N 47°04' W 124°33'4 7.1
2017-Oct-09 15:00N 47°07' W 124°35'3 6.9
2017-Oct-09 14:30N 47°10' W 124°36'42 7.1
2017-Oct-09 08:36N 47°51' W 124°51'24 7.1
2017-Oct-09 05:16N 48°15' W 124°56'2 7.7
2017-Oct-09 04:59N 48°17' W 124°54'4 7.8
2017-Oct-09 04:25N 48°21' W 124°51'4 8.2
2017-Oct-09 03:59N 48°24' W 124°49'3 7.1
2017-Oct-09 03:30N 48°26' W 124°44'4 7.5
2017-Oct-09 03:00N 48°25' W 124°39'4 8.0
2017-Oct-09 02:30N 48°23' W 124°33'4 8.1
2017-Oct-09 02:00N 48°22' W 124°28'4 8.0
2017-Oct-09 01:28N 48°20' W 124°22'3 7.4
2017-Oct-09 01:00N 48°18' W 124°17'3 6.9
2017-Oct-09 00:30N 48°17' W 124°13'3 6.3
2017-Oct-09 00:00N 48°15' W 124°08'6 6.2
2017-Oct-08 23:03N 48°13' W 124°00'0 6.0
2017-Oct-08 22:58N 48°13' W 123°60'3 5.5
2017-Oct-08 22:29N 48°12' W 123°56'3 6.1
2017-Oct-08 22:00N 48°12' W 123°52'3 6.9
2017-Oct-08 21:30N 48°12' W 123°46'4 7.6
2017-Oct-08 21:00N 48°12' W 123°41'4 8.0
2017-Oct-08 20:30N 48°11' W 123°35'4 8.3
2017-Oct-08 20:00N 48°11' W 123°29'4 8.0
2017-Oct-08 19:30N 48°09' W 123°24'2 3.3
2017-Oct-08 19:00N 48°08' W 123°26'0 0.1
2017-Oct-08 18:29N 48°08' W 123°26'0 0.1
2017-Oct-08 17:59N 48°08' W 123°26'2 4.8
2017-Oct-08 17:30N 48°09' W 123°23'4 8.3
2017-Oct-08 16:59N 48°12' W 123°19'4 8.5
2017-Oct-08 16:30N 48°16' W 123°15'4 7.7
2017-Oct-08 15:57N 48°20' W 123°13'4 8.4
2017-Oct-08 15:30N 48°23' W 123°13'5 9.3
2017-Oct-08 15:00N 48°28' W 123°13'4 8.5
2017-Oct-08 14:30N 48°32' W 123°13'4 7.8
2017-Oct-08 14:00N 48°36' W 123°15'3 6.2
2017-Oct-08 13:30N 48°39' W 123°15'4 7.2
2017-Oct-08 13:00N 48°43' W 123°16'4 7.5
2017-Oct-08 12:30N 48°46' W 123°19'3 7.1
2017-Oct-08 12:00N 48°49' W 123°20'4 7.4
2017-Oct-08 11:30N 48°52' W 123°24'4 7.5
2017-Oct-08 11:00N 48°54' W 123°29'3 6.3
2017-Oct-08 10:30N 48°56' W 123°33'3 5.2
2017-Oct-08 10:00N 48°57' W 123°37'2 4.9
2017-Oct-08 09:30N 48°54' W 123°38'2 3.7
2017-Oct-08 08:58N 48°55' W 123°41'0 0.5
2017-Oct-08 08:28N 48°55' W 123°41'0 0.0
2017-Oct-08 07:58N 48°55' W 123°41'0 0.1
2017-Oct-08 07:16N 48°55' W 123°41'0 0.0
2017-Oct-08 06:58N 48°55' W 123°41'0 0.0
2017-Oct-08 06:25N 48°55' W 123°41'0 0.0
2017-Oct-08 05:52N 48°55' W 123°41'0 0.0
2017-Oct-08 05:25N 48°55' W 123°41'0 0.0
2017-Oct-08 04:52N 48°55' W 123°41'0 0.0
2017-Oct-08 04:25N 48°55' W 123°41'0 0.0
2017-Oct-08 03:43N 48°55' W 123°41'0 0.0
2017-Oct-08 03:25N 48°55' W 123°41'0 0.0
2017-Oct-08 02:55N 48°55' W 123°41'0 0.0
2017-Oct-08 02:28N 48°55' W 123°41'0 0.0
2017-Oct-08 01:55N 48°55' W 123°41'0 0.0
2017-Oct-08 01:25N 48°55' W 123°41'0 0.0
2017-Oct-08 00:49N 48°55' W 123°41'0 0.0
2017-Oct-08 00:22N 48°55' W 123°41'0 0.0
2017-Oct-07 23:52N 48°55' W 123°41'0 0.0
2017-Oct-07 23:28N 48°55' W 123°41'0 0.0
2017-Oct-07 22:55N 48°55' W 123°41'0 0.0
2017-Oct-07 22:28N 48°55' W 123°41'0 0.0
2017-Oct-07 21:58N 48°55' W 123°41'0 0.0
2017-Oct-07 21:19N 48°55' W 123°41'0 0.0
2017-Oct-07 20:58N 48°55' W 123°41'0 0.0
2017-Oct-07 20:28N 48°55' W 123°41'0 0.0
2017-Oct-07 19:58N 48°55' W 123°41'0 0.0
2017-Oct-07 19:22N 48°55' W 123°41'0 0.0
2017-Oct-07 18:55N 48°55' W 123°41'0 0.0
2017-Oct-07 18:30N 48°55' W 123°41'0 0.0
2017-Oct-07 17:57N 48°55' W 123°41'0 0.0
2017-Oct-07 17:30N 48°55' W 123°41'0 0.0
2017-Oct-07 17:00N 48°55' W 123°41'0 0.0
2017-Oct-07 16:21N 48°55' W 123°41'0 0.0
2017-Oct-07 15:57N 48°55' W 123°41'0 0.0
2017-Oct-07 15:30N 48°55' W 123°41'0 0.0
2017-Oct-07 14:54N 48°55' W 123°41'0 0.0
2017-Oct-07 14:27N 48°55' W 123°41'0 0.0
2017-Oct-07 13:57N 48°55' W 123°41'0 0.0
2017-Oct-07 13:27N 48°55' W 123°41'0 0.0
2017-Oct-07 13:00N 48°55' W 123°41'0 0.0
2017-Oct-07 12:27N 48°55' W 123°41'0 0.0
2017-Oct-07 12:00N 48°55' W 123°41'0 0.0
2017-Oct-07 11:27N 48°55' W 123°41'0 0.0
2017-Oct-07 10:57N 48°55' W 123°41'0 0.0
2017-Oct-07 10:30N 48°55' W 123°41'0 0.0
2017-Oct-07 09:45N 48°55' W 123°41'0 0.0
2017-Oct-07 09:21N 48°55' W 123°41'0 0.0
2017-Oct-07 08:57N 48°55' W 123°41'0 0.0
2017-Oct-07 08:27N 48°55' W 123°41'0 0.0
2017-Oct-07 07:27N 48°55' W 123°41'0 0.0
2017-Oct-07 07:00N 48°55' W 123°41'0 0.0
2017-Oct-07 06:30N 48°55' W 123°41'0 0.0
2017-Oct-07 06:00N 48°55' W 123°41'0 0.0
2017-Oct-07 05:30N 48°55' W 123°41'0 0.0
2017-Oct-07 04:51N 48°55' W 123°41'0 0.0
2017-Oct-07 04:27N 48°55' W 123°41'0 0.0
2017-Oct-07 03:54N 48°55' W 123°41'0 0.0
2017-Oct-07 03:24N 48°55' W 123°41'0 0.0
2017-Oct-07 03:00N 48°55' W 123°41'0 0.0
2017-Oct-07 02:21N 48°55' W 123°41'0 0.0
2017-Oct-07 01:51N 48°55' W 123°41'0 0.0
2017-Oct-07 01:30N 48°55' W 123°41'0 0.0
2017-Oct-07 01:00N 48°55' W 123°41'0 0.0
2017-Oct-07 00:30N 48°55' W 123°41'0 0.0
2017-Oct-07 00:00N 48°55' W 123°41'0 0.0
2017-Oct-06 23:27N 48°55' W 123°41'0 0.0
2017-Oct-06 22:57N 48°55' W 123°41'0 0.0
2017-Oct-06 22:30N 48°55' W 123°41'0 0.0
2017-Oct-06 22:00N 48°55' W 123°41'0 0.0
2017-Oct-06 21:30N 48°55' W 123°41'0 0.0
2017-Oct-06 21:00N 48°55' W 123°41'0 0.0
2017-Oct-06 20:27N 48°55' W 123°41'0 0.0
2017-Oct-06 20:00N 48°55' W 123°41'0 0.0
2017-Oct-06 19:30N 48°55' W 123°41'0 0.0
2017-Oct-06 18:54N 48°55' W 123°41'0 0.0
2017-Oct-06 18:24N 48°55' W 123°41'0 0.0
2017-Oct-06 17:54N 48°55' W 123°41'0 0.0
2017-Oct-06 17:30N 48°55' W 123°41'0 0.0
2017-Oct-06 17:00N 48°55' W 123°41'0 0.0
2017-Oct-06 16:30N 48°55' W 123°41'0 0.0
2017-Oct-06 16:00N 48°55' W 123°41'0 0.0
2017-Oct-06 15:30N 48°55' W 123°41'0 0.0
2017-Oct-06 15:00N 48°55' W 123°41'0 0.0
2017-Oct-06 14:30N 48°55' W 123°41'0 0.0
2017-Oct-06 14:00N 48°55' W 123°41'0 0.0
2017-Oct-06 13:30N 48°55' W 123°41'0 0.0
2017-Oct-06 13:00N 48°55' W 123°41'0 0.0
2017-Oct-06 12:30N 48°55' W 123°41'0 0.0
2017-Oct-06 12:00N 48°55' W 123°41'0 0.0
2017-Oct-06 11:30N 48°55' W 123°41'0 0.0
2017-Oct-06 11:00N 48°55' W 123°41'0 0.0
2017-Oct-06 10:30N 48°55' W 123°41'0 0.0
2017-Oct-06 09:57N 48°55' W 123°41'0 0.0
2017-Oct-06 09:30N 48°55' W 123°41'0 0.0
2017-Oct-06 09:00N 48°55' W 123°41'0 0.0
2017-Oct-06 08:26N 48°55' W 123°41'0 0.0
2017-Oct-06 07:59N 48°55' W 123°41'0 0.0
2017-Oct-06 07:26N 48°55' W 123°41'0 0.0
2017-Oct-06 06:56N 48°55' W 123°41'0 0.0
2017-Oct-06 06:29N 48°55' W 123°41'0 0.0
2017-Oct-06 05:59N 48°55' W 123°41'0 0.0
2017-Oct-06 05:29N 48°55' W 123°41'0 0.0
2017-Oct-06 04:59N 48°55' W 123°41'0 0.0
2017-Oct-06 04:29N 48°55' W 123°41'0 0.0
2017-Oct-06 03:47N 48°55' W 123°41'0 0.0
2017-Oct-06 03:29N 48°55' W 123°41'0 0.0
2017-Oct-06 02:59N 48°55' W 123°41'0 0.0
2017-Oct-06 02:26N 48°55' W 123°41'0 0.0
2017-Oct-06 01:56N 48°55' W 123°41'0 0.0
2017-Oct-06 01:26N 48°55' W 123°41'0 0.0
2017-Oct-06 00:56N 48°55' W 123°41'0 0.0
2017-Oct-06 00:26N 48°55' W 123°41'0 0.0
2017-Oct-05 23:56N 48°55' W 123°41'0 0.0
2017-Oct-05 23:11N 48°55' W 123°41'0 0.0
2017-Oct-05 22:56N 48°55' W 123°41'0 0.0
2017-Oct-05 21:47N 48°55' W 123°41'0 0.0
2017-Oct-05 21:29N 48°55' W 123°41'0 0.0
2017-Oct-05 20:53N 48°55' W 123°41'0 0.0
2017-Oct-05 20:17N 48°55' W 123°41'0 0.0
2017-Oct-05 19:56N 48°55' W 123°41'0 0.0
2017-Oct-05 19:20N 48°55' W 123°41'0 0.0
2017-Oct-05 18:56N 48°55' W 123°41'0 0.0
2017-Oct-05 18:29N 48°55' W 123°41'0 0.0
2017-Oct-05 17:59N 48°55' W 123°41'0 0.0
2017-Oct-05 17:26N 48°55' W 123°41'0 0.0
2017-Oct-05 16:59N 48°55' W 123°41'0 0.0
2017-Oct-05 15:29N 48°55' W 123°41'0 0.0
2017-Oct-05 14:59N 48°55' W 123°41'0 0.0
2017-Oct-05 14:14N 48°55' W 123°41'0 0.0
2017-Oct-05 13:47N 48°55' W 123°41'0 0.0
2017-Oct-05 13:20N 48°55' W 123°41'0 0.0
2017-Oct-05 12:59N 48°55' W 123°41'0 0.0
2017-Oct-05 12:29N 48°55' W 123°41'0 0.0
2017-Oct-05 11:59N 48°55' W 123°41'0 0.0
2017-Oct-05 11:29N 48°55' W 123°41'0 0.0
2017-Oct-05 10:59N 48°55' W 123°41'0 0.0
2017-Oct-05 10:29N 48°55' W 123°41'0 0.0
2017-Oct-05 09:59N 48°55' W 123°41'0 0.0
2017-Oct-05 09:29N 48°55' W 123°41'0 0.0
2017-Oct-05 08:59N 48°55' W 123°41'0 0.0
2017-Oct-05 08:11N 48°55' W 123°41'0 0.0
2017-Oct-05 07:59N 48°55' W 123°41'0 0.0
2017-Oct-05 07:23N 48°55' W 123°41'0 0.0
2017-Oct-05 06:56N 48°55' W 123°41'0 0.0
2017-Oct-05 06:29N 48°55' W 123°41'0 0.0
2017-Oct-05 05:53N 48°55' W 123°41'0 0.0
2017-Oct-05 05:29N 48°55' W 123°41'0 0.0
2017-Oct-05 04:59N 48°55' W 123°41'0 0.0
2017-Oct-05 04:17N 48°55' W 123°41'0 0.0
2017-Oct-05 03:53N 48°55' W 123°41'0 0.0
2017-Oct-05 03:20N 48°55' W 123°41'0 0.0
2017-Oct-05 02:59N 48°55' W 123°41'0 0.0
2017-Oct-05 02:29N 48°55' W 123°41'0 0.0
2017-Oct-05 02:00N 48°55' W 123°41'0 0.0
2017-Oct-05 01:30N 48°55' W 123°41'0 0.0
2017-Oct-05 01:00N 48°55' W 123°41'0 0.1
2017-Oct-05 00:30N 48°55' W 123°41'1 1.7
2017-Oct-05 00:00N 48°56' W 123°40'2 4.0
2017-Oct-04 23:30N 48°55' W 123°38'3 5.6
2017-Oct-04 22:58N 48°57' W 123°35'4 8.8
2017-Oct-04 22:30N 48°55' W 123°29'510.1
2017-Oct-04 22:00N 48°51' W 123°24'5 9.9
2017-Oct-04 21:30N 48°47' W 123°20'510.0
2017-Oct-04 20:59N 48°43' W 123°16'510.1
2017-Oct-04 20:30N 48°38' W 123°14'5 9.7
2017-Oct-04 20:00N 48°33' W 123°12'4 8.8
2017-Oct-04 19:30N 48°29' W 123°10'4 8.9
2017-Oct-04 19:00N 48°25' W 123°10'4 8.7
2017-Oct-04 18:30N 48°20' W 123°12'5 8.7
2017-Oct-04 17:55N 48°16' W 123°15'4 8.6
2017-Oct-04 17:30N 48°13' W 123°18'4 8.7
2017-Oct-04 17:00N 48°09' W 123°22'2 4.2
2017-Oct-04 16:30N 48°08' W 123°24'3 6.5
2017-Oct-04 16:00N 48°10' W 123°28'2 4.9
2017-Oct-04 15:30N 48°12' W 123°31'3 6.5
2017-Oct-04 15:00N 48°12' W 123°36'3 6.8
2017-Oct-04 14:30N 48°12' W 123°41'3 6.1
2017-Oct-04 13:58N 48°12' W 123°45'3 6.5
2017-Oct-04 13:30N 48°12' W 123°50'3 6.7
2017-Oct-04 12:59N 48°12' W 123°55'3 6.8
2017-Oct-04 12:30N 48°14' W 123°60'4 6.9
2017-Oct-04 11:59N 48°15' W 124°05'3 6.9
2017-Oct-04 11:30N 48°17' W 124°09'3 6.8
2017-Oct-04 11:00N 48°18' W 124°14'2 4.9
2017-Oct-04 10:30N 48°19' W 124°17'4 8.2
2017-Oct-04 10:00N 48°21' W 124°23'4 8.5
2017-Oct-04 09:30N 48°23' W 124°28'4 8.5
2017-Oct-04 09:00N 48°24' W 124°34'5 9.5
2017-Oct-04 08:30N 48°26' W 124°41'4 8.4
2017-Oct-04 08:00N 48°26' W 124°47'5 9.7
2017-Oct-04 07:30N 48°21' W 124°51'5 9.7
2017-Oct-04 06:58N 48°17' W 124°54'41 8.5
2017-Oct-04 02:11N 47°36' W 124°45'2 8.8
2017-Oct-04 01:59N 47°35' W 124°45'6 8.7
2017-Oct-04 01:19N 47°29' W 124°43'3 8.3
2017-Oct-04 01:00N 47°26' W 124°42'4 8.3
2017-Oct-04 00:30N 47°22' W 124°40'4 8.5
2017-Oct-04 00:00N 47°18' W 124°39'4 8.7
2017-Oct-03 23:30N 47°14' W 124°37'6 8.8
2017-Oct-03 22:52N 47°09' W 124°35'5 8.7
2017-Oct-03 22:17N 47°04' W 124°33'3 8.9
2017-Oct-03 22:00N 47°01' W 124°32'4 8.9
2017-Oct-03 21:30N 46°57' W 124°30'4 8.9
2017-Oct-03 21:00N 46°53' W 124°29'4 8.9
2017-Oct-03 20:31N 46°48' W 124°28'4 8.6
2017-Oct-03 20:00N 46°44' W 124°27'4 8.5
2017-Oct-03 19:31N 46°40' W 124°26'4 8.4
2017-Oct-03 19:00N 46°36' W 124°25'4 8.6
2017-Oct-03 18:30N 46°31' W 124°24'4 8.8
2017-Oct-03 18:00N 46°27' W 124°22'4 8.6
2017-Oct-03 17:30N 46°23' W 124°21'4 8.8
2017-Oct-03 17:00N 46°19' W 124°19'4 8.8
2017-Oct-03 16:31N 46°15' W 124°16'5 9.0
2017-Oct-03 16:00N 46°11' W 124°12'6 8.7
2017-Oct-03 15:22N 46°06' W 124°10'3 8.8
2017-Oct-03 15:00N 46°03' W 124°09'9 9.1
2017-Oct-03 14:00N 45°54' W 124°07'5 9.0
2017-Oct-03 13:30N 45°50' W 124°06'4 8.9
2017-Oct-03 13:00N 45°45' W 124°06'5 9.1
2017-Oct-03 12:31N 45°41' W 124°05'4 8.7
2017-Oct-03 12:01N 45°36' W 124°04'4 8.7
2017-Oct-03 11:31N 45°32' W 124°04'4 8.7
2017-Oct-03 11:00N 45°28' W 124°04'4 8.5
2017-Oct-03 10:29N 45°23' W 124°05'4 8.5
2017-Oct-03 10:00N 45°19' W 124°05'7 0.2
2017-Oct-02 02:32N 45°27' W 124°05'011.9
2017-Oct-02 02:29N 45°27' W 124°05'612.4
2017-Oct-02 01:59N 45°33' W 124°04'612.1
2017-Oct-02 01:30N 45°39' W 124°05'612.1
2017-Oct-02 01:01N 45°45' W 124°05'612.0
2017-Oct-02 00:31N 45°51' W 124°07'611.9
2017-Oct-02 00:00N 45°57' W 124°08'611.7
2017-Oct-01 23:30N 46°03' W 124°09'612.2
2017-Oct-01 23:00N 46°09' W 124°10'611.5
2017-Oct-01 22:30N 46°14' W 124°07'1110.2
2017-Oct-01 21:26N 46°11' W 123°52'1 2.4
2017-Oct-01 21:01N 46°12' W 123°50'0 0.0
2017-Oct-01 20:30N 46°12' W 123°50'0 0.0
2017-Oct-01 20:01N 46°12' W 123°50'0 0.0
2017-Oct-01 19:31N 46°12' W 123°50'0 0.0
2017-Oct-01 19:01N 46°12' W 123°50'0 0.0
2017-Oct-01 18:31N 46°12' W 123°50'0 0.0
2017-Oct-01 18:01N 46°12' W 123°50'0 0.0
2017-Oct-01 17:31N 46°12' W 123°50'1 1.9
2017-Oct-01 17:01N 46°11' W 123°52'0 0.1
2017-Oct-01 16:26N 46°11' W 123°52'0 0.0
2017-Oct-01 16:01N 46°11' W 123°52'0 0.0
2017-Oct-01 15:31N 46°11' W 123°52'0 0.0
2017-Oct-01 15:01N 46°11' W 123°52'0 0.0
2017-Oct-01 14:31N 46°11' W 123°52'0 0.0
2017-Oct-01 14:01N 46°11' W 123°52'0 0.0
2017-Oct-01 13:30N 46°11' W 123°52'0 0.0
2017-Oct-01 13:01N 46°11' W 123°52'0 0.0
2017-Oct-01 12:30N 46°11' W 123°52'0 0.0
2017-Oct-01 12:01N 46°11' W 123°52'0 0.0
2017-Oct-01 11:30N 46°11' W 123°52'0 0.0
2017-Oct-01 11:01N 46°11' W 123°52'0 0.0
2017-Oct-01 10:31N 46°11' W 123°52'0 0.0
2017-Oct-01 10:00N 46°11' W 123°52'0 0.0
2017-Oct-01 09:31N 46°11' W 123°52'0 0.0
2017-Oct-01 09:01N 46°11' W 123°52'0 0.0
2017-Oct-01 08:30N 46°11' W 123°52'0 0.0
2017-Oct-01 08:00N 46°11' W 123°52'0 0.0
2017-Oct-01 07:30N 46°11' W 123°52'0 0.0
2017-Oct-01 07:00N 46°11' W 123°52'0 0.0
2017-Oct-01 06:31N 46°11' W 123°52'0 0.3
2017-Oct-01 06:01N 46°11' W 123°52'510.1
2017-Oct-01 05:30N 46°13' W 123°45'5 9.5
2017-Oct-01 05:00N 46°15' W 123°39'5 9.5
2017-Oct-01 04:30N 46°16' W 123°32'4 7.2
2017-Oct-01 04:00N 46°15' W 123°27'6 6.8
2017-Oct-01 03:08N 46°09' W 123°24'0 0.1
2017-Oct-01 03:00N 46°09' W 123°24'  
Track history (hours):
 
Tides and Currents Weather Stations Pressure Air Temp Water Temp Dewpoint Dewpoint Depression Visibility Wind Speed Wind Dir Waves Ship Positions

Gene Dunlap

Owner: DUNLAP TOWING CO, LA CONNER, WA. More information available from US FCC via Universal Licensing System and Coast Guard Vessel Documentation Center.

Last reported at 2017-Oct-10 05:21 UTC. Time now 2017-Oct-17 22:32 UTC.
Position N 45°19' W 124°05'.

Type: Tow > 200 m length. MMSI: 367472000.

Date/timePositionNaut miles runAvg speedWind from/ knotsBaromVisibWave heightAir tempDewpointWater temp
2017-Oct-10 05:21N 45°19' W 124°05'3 7.9
2017-Oct-10 05:00N 45°21' W 124°05'4 7.8
2017-Oct-10 04:29N 45°26' W 124°05'5 8.0
2017-Oct-10 03:50N 45°31' W 124°04'3 8.1
2017-Oct-10 03:30N 45°33' W 124°04'5 8.0
2017-Oct-10 02:56N 45°38' W 124°05'3 7.9
2017-Oct-10 02:30N 45°41' W 124°05'4 8.1
2017-Oct-10 02:00N 45°45' W 124°06'7 7.9
2017-Oct-10 01:11N 45°52' W 124°07'1 8.0
2017-Oct-10 01:01N 45°53' W 124°07'4 7.9
2017-Oct-10 00:30N 45°57' W 124°08'4 8.0
2017-Oct-10 00:00N 46°01' W 124°09'4 7.7
2017-Oct-09 23:30N 46°05' W 124°09'4 7.7
2017-Oct-09 23:00N 46°09' W 124°10'4 7.9
2017-Oct-09 22:30N 46°11' W 124°14'4 7.4
2017-Oct-09 22:00N 46°14' W 124°17'4 7.8
2017-Oct-09 21:30N 46°18' W 124°19'4 7.8
2017-Oct-09 21:00N 46°22' W 124°20'4 8.0
2017-Oct-09 20:30N 46°26' W 124°21'4 8.0
2017-Oct-09 20:00N 46°30' W 124°23'4 8.0
2017-Oct-09 19:31N 46°33' W 124°24'4 8.0
2017-Oct-09 19:00N 46°37' W 124°25'4 8.0
2017-Oct-09 18:31N 46°41' W 124°26'4 7.8
2017-Oct-09 18:01N 46°45' W 124°27'4 7.9
2017-Oct-09 17:30N 46°49' W 124°28'4 7.8
2017-Oct-09 17:00N 46°53' W 124°29'4 7.8
2017-Oct-09 16:30N 46°57' W 124°30'4 7.4
2017-Oct-09 16:00N 47°00' W 124°32'4 7.3
2017-Oct-09 15:30N 47°04' W 124°33'4 7.1
2017-Oct-09 15:00N 47°07' W 124°35'3 6.9
2017-Oct-09 14:30N 47°10' W 124°36'42 7.1
2017-Oct-09 08:36N 47°51' W 124°51'24 7.1
2017-Oct-09 05:16N 48°15' W 124°56'2 7.7
2017-Oct-09 04:59N 48°17' W 124°54'4 7.8
2017-Oct-09 04:25N 48°21' W 124°51'4 8.2
2017-Oct-09 03:59N 48°24' W 124°49'3 7.1
2017-Oct-09 03:30N 48°26' W 124°44'4 7.5
2017-Oct-09 03:00N 48°25' W 124°39'4 8.0
2017-Oct-09 02:30N 48°23' W 124°33'4 8.1
2017-Oct-09 02:00N 48°22' W 124°28'4 8.0
2017-Oct-09 01:28N 48°20' W 124°22'3 7.4
2017-Oct-09 01:00N 48°18' W 124°17'3 6.9
2017-Oct-09 00:30N 48°17' W 124°13'3 6.3
2017-Oct-09 00:00N 48°15' W 124°08'6 6.2
2017-Oct-08 23:03N 48°13' W 124°00'0 6.0
2017-Oct-08 22:58N 48°13' W 123°60'3 5.5
2017-Oct-08 22:29N 48°12' W 123°56'3 6.1
2017-Oct-08 22:00N 48°12' W 123°52'3 6.9
2017-Oct-08 21:30N 48°12' W 123°46'4 7.6
2017-Oct-08 21:00N 48°12' W 123°41'4 8.0
2017-Oct-08 20:30N 48°11' W 123°35'4 8.3
2017-Oct-08 20:00N 48°11' W 123°29'4 8.0
2017-Oct-08 19:30N 48°09' W 123°24'2 3.3
2017-Oct-08 19:00N 48°08' W 123°26'0 0.1
2017-Oct-08 18:29N 48°08' W 123°26'0 0.1
2017-Oct-08 17:59N 48°08' W 123°26'2 4.8
2017-Oct-08 17:30N 48°09' W 123°23'4 8.3
2017-Oct-08 16:59N 48°12' W 123°19'4 8.5
2017-Oct-08 16:30N 48°16' W 123°15'4 7.7
2017-Oct-08 15:57N 48°20' W 123°13'4 8.4
2017-Oct-08 15:30N 48°23' W 123°13'5 9.3
2017-Oct-08 15:00N 48°28' W 123°13'4 8.5
2017-Oct-08 14:30N 48°32' W 123°13'4 7.8
2017-Oct-08 14:00N 48°36' W 123°15'3 6.2
2017-Oct-08 13:30N 48°39' W 123°15'4 7.2
2017-Oct-08 13:00N 48°43' W 123°16'4 7.5
2017-Oct-08 12:30N 48°46' W 123°19'3 7.1
2017-Oct-08 12:00N 48°49' W 123°20'4 7.4
2017-Oct-08 11:30N 48°52' W 123°24'4 7.5
2017-Oct-08 11:00N 48°54' W 123°29'3 6.3
2017-Oct-08 10:30N 48°56' W 123°33'3 5.2
2017-Oct-08 10:00N 48°57' W 123°37'2 4.9
2017-Oct-08 09:30N 48°54' W 123°38'2 3.7
2017-Oct-08 08:58N 48°55' W 123°41'0 0.5
2017-Oct-08 08:28N 48°55' W 123°41'0 0.0
2017-Oct-08 07:58N 48°55' W 123°41'0 0.1
2017-Oct-08 07:16N 48°55' W 123°41'0 0.0
2017-Oct-08 06:58N 48°55' W 123°41'0 0.0
2017-Oct-08 06:25N 48°55' W 123°41'0 0.0
2017-Oct-08 05:52N 48°55' W 123°41'0 0.0
2017-Oct-08 05:25N 48°55' W 123°41'0 0.0
2017-Oct-08 04:52N 48°55' W 123°41'0 0.0
2017-Oct-08 04:25N 48°55' W 123°41'0 0.0
2017-Oct-08 03:43N 48°55' W 123°41'0 0.0
2017-Oct-08 03:25N 48°55' W 123°41'0 0.0
2017-Oct-08 02:55N 48°55' W 123°41'0 0.0
2017-Oct-08 02:28N 48°55' W 123°41'0 0.0
2017-Oct-08 01:55N 48°55' W 123°41'0 0.0
2017-Oct-08 01:25N 48°55' W 123°41'0 0.0
2017-Oct-08 00:49N 48°55' W 123°41'0 0.0
2017-Oct-08 00:22N 48°55' W 123°41'0 0.0
2017-Oct-07 23:52N 48°55' W 123°41'0 0.0
2017-Oct-07 23:28N 48°55' W 123°41'0 0.0
2017-Oct-07 22:55N 48°55' W 123°41'0 0.0
2017-Oct-07 22:28N 48°55' W 123°41'0 0.0
2017-Oct-07 21:58N 48°55' W 123°41'0 0.0
2017-Oct-07 21:19N 48°55' W 123°41'0 0.0
2017-Oct-07 20:58N 48°55' W 123°41'0 0.0
2017-Oct-07 20:28N 48°55' W 123°41'0 0.0
2017-Oct-07 19:58N 48°55' W 123°41'0 0.0
2017-Oct-07 19:22N 48°55' W 123°41'0 0.0
2017-Oct-07 18:55N 48°55' W 123°41'0 0.0
2017-Oct-07 18:30N 48°55' W 123°41'0 0.0
2017-Oct-07 17:57N 48°55' W 123°41'0 0.0
2017-Oct-07 17:30N 48°55' W 123°41'0 0.0
2017-Oct-07 17:00N 48°55' W 123°41'0 0.0
2017-Oct-07 16:21N 48°55' W 123°41'0 0.0
2017-Oct-07 15:57N 48°55' W 123°41'0 0.0
2017-Oct-07 15:30N 48°55' W 123°41'0 0.0
2017-Oct-07 14:54N 48°55' W 123°41'0 0.0
2017-Oct-07 14:27N 48°55' W 123°41'0 0.0
2017-Oct-07 13:57N 48°55' W 123°41'0 0.0
2017-Oct-07 13:27N 48°55' W 123°41'0 0.0
2017-Oct-07 13:00N 48°55' W 123°41'0 0.0
2017-Oct-07 12:27N 48°55' W 123°41'0 0.0
2017-Oct-07 12:00N 48°55' W 123°41'0 0.0
2017-Oct-07 11:27N 48°55' W 123°41'0 0.0
2017-Oct-07 10:57N 48°55' W 123°41'0 0.0
2017-Oct-07 10:30N 48°55' W 123°41'0 0.0
2017-Oct-07 09:45N 48°55' W 123°41'0 0.0
2017-Oct-07 09:21N 48°55' W 123°41'0 0.0
2017-Oct-07 08:57N 48°55' W 123°41'0 0.0
2017-Oct-07 08:27N 48°55' W 123°41'0 0.0
2017-Oct-07 07:27N 48°55' W 123°41'0 0.0
2017-Oct-07 07:00N 48°55' W 123°41'0 0.0
2017-Oct-07 06:30N 48°55' W 123°41'0 0.0
2017-Oct-07 06:00N 48°55' W 123°41'0 0.0
2017-Oct-07 05:30N 48°55' W 123°41'0 0.0
2017-Oct-07 04:51N 48°55' W 123°41'0 0.0
2017-Oct-07 04:27N 48°55' W 123°41'0 0.0
2017-Oct-07 03:54N 48°55' W 123°41'0 0.0
2017-Oct-07 03:24N 48°55' W 123°41'0 0.0
2017-Oct-07 03:00N 48°55' W 123°41'0 0.0
2017-Oct-07 02:21N 48°55' W 123°41'0 0.0
2017-Oct-07 01:51N 48°55' W 123°41'0 0.0
2017-Oct-07 01:30N 48°55' W 123°41'0 0.0
2017-Oct-07 01:00N 48°55' W 123°41'0 0.0
2017-Oct-07 00:30N 48°55' W 123°41'0 0.0
2017-Oct-07 00:00N 48°55' W 123°41'0 0.0
2017-Oct-06 23:27N 48°55' W 123°41'0 0.0
2017-Oct-06 22:57N 48°55' W 123°41'0 0.0
2017-Oct-06 22:30N 48°55' W 123°41'0 0.0
2017-Oct-06 22:00N 48°55' W 123°41'0 0.0
2017-Oct-06 21:30N 48°55' W 123°41'0 0.0
2017-Oct-06 21:00N 48°55' W 123°41'0 0.0
2017-Oct-06 20:27N 48°55' W 123°41'0 0.0
2017-Oct-06 20:00N 48°55' W 123°41'0 0.0
2017-Oct-06 19:30N 48°55' W 123°41'0 0.0
2017-Oct-06 18:54N 48°55' W 123°41'0 0.0
2017-Oct-06 18:24N 48°55' W 123°41'0 0.0
2017-Oct-06 17:54N 48°55' W 123°41'0 0.0
2017-Oct-06 17:30N 48°55' W 123°41'0 0.0
2017-Oct-06 17:00N 48°55' W 123°41'0 0.0
2017-Oct-06 16:30N 48°55' W 123°41'0 0.0
2017-Oct-06 16:00N 48°55' W 123°41'0 0.0
2017-Oct-06 15:30N 48°55' W 123°41'0 0.0
2017-Oct-06 15:00N 48°55' W 123°41'0 0.0
2017-Oct-06 14:30N 48°55' W 123°41'0 0.0
2017-Oct-06 14:00N 48°55' W 123°41'0 0.0
2017-Oct-06 13:30N 48°55' W 123°41'0 0.0
2017-Oct-06 13:00N 48°55' W 123°41'0 0.0
2017-Oct-06 12:30N 48°55' W 123°41'0 0.0
2017-Oct-06 12:00N 48°55' W 123°41'0 0.0
2017-Oct-06 11:30N 48°55' W 123°41'0 0.0
2017-Oct-06 11:00N 48°55' W 123°41'0 0.0
2017-Oct-06 10:30N 48°55' W 123°41'0 0.0
2017-Oct-06 09:57N 48°55' W 123°41'0 0.0
2017-Oct-06 09:30N 48°55' W 123°41'0 0.0
2017-Oct-06 09:00N 48°55' W 123°41'0 0.0
2017-Oct-06 08:26N 48°55' W 123°41'0 0.0
2017-Oct-06 07:59N 48°55' W 123°41'0 0.0
2017-Oct-06 07:26N 48°55' W 123°41'0 0.0
2017-Oct-06 06:56N 48°55' W 123°41'0 0.0
2017-Oct-06 06:29N 48°55' W 123°41'0 0.0
2017-Oct-06 05:59N 48°55' W 123°41'0 0.0
2017-Oct-06 05:29N 48°55' W 123°41'0 0.0
2017-Oct-06 04:59N 48°55' W 123°41'0 0.0
2017-Oct-06 04:29N 48°55' W 123°41'0 0.0
2017-Oct-06 03:47N 48°55' W 123°41'0 0.0
2017-Oct-06 03:29N 48°55' W 123°41'0 0.0
2017-Oct-06 02:59N 48°55' W 123°41'0 0.0
2017-Oct-06 02:26N 48°55' W 123°41'0 0.0
2017-Oct-06 01:56N 48°55' W 123°41'0 0.0
2017-Oct-06 01:26N 48°55' W 123°41'0 0.0
2017-Oct-06 00:56N 48°55' W 123°41'0 0.0
2017-Oct-06 00:26N 48°55' W 123°41'0 0.0
2017-Oct-05 23:56N 48°55' W 123°41'0 0.0
2017-Oct-05 23:11N 48°55' W 123°41'0 0.0
2017-Oct-05 22:56N 48°55' W 123°41'0 0.0
2017-Oct-05 21:47N 48°55' W 123°41'0 0.0
2017-Oct-05 21:29N 48°55' W 123°41'0 0.0
2017-Oct-05 20:53N 48°55' W 123°41'0 0.0
2017-Oct-05 20:17N 48°55' W 123°41'0 0.0
2017-Oct-05 19:56N 48°55' W 123°41'0 0.0
2017-Oct-05 19:20N 48°55' W 123°41'0 0.0
2017-Oct-05 18:56N 48°55' W 123°41'0 0.0
2017-Oct-05 18:29N 48°55' W 123°41'0 0.0
2017-Oct-05 17:59N 48°55' W 123°41'0 0.0
2017-Oct-05 17:26N 48°55' W 123°41'0 0.0
2017-Oct-05 16:59N 48°55' W 123°41'0 0.0
2017-Oct-05 15:29N 48°55' W 123°41'0 0.0
2017-Oct-05 14:59N 48°55' W 123°41'0 0.0
2017-Oct-05 14:14N 48°55' W 123°41'0 0.0
2017-Oct-05 13:47N 48°55' W 123°41'0 0.0
2017-Oct-05 13:20N 48°55' W 123°41'0 0.0
2017-Oct-05 12:59N 48°55' W 123°41'0 0.0
2017-Oct-05 12:29N 48°55' W 123°41'0 0.0
2017-Oct-05 11:59N 48°55' W 123°41'0 0.0
2017-Oct-05 11:29N 48°55' W 123°41'0 0.0
2017-Oct-05 10:59N 48°55' W 123°41'0 0.0
2017-Oct-05 10:29N 48°55' W 123°41'0 0.0
2017-Oct-05 09:59N 48°55' W 123°41'0 0.0
2017-Oct-05 09:29N 48°55' W 123°41'0 0.0
2017-Oct-05 08:59N 48°55' W 123°41'0 0.0
2017-Oct-05 08:11N 48°55' W 123°41'0 0.0
2017-Oct-05 07:59N 48°55' W 123°41'0 0.0
2017-Oct-05 07:23N 48°55' W 123°41'0 0.0
2017-Oct-05 06:56N 48°55' W 123°41'0 0.0
2017-Oct-05 06:29N 48°55' W 123°41'0 0.0
2017-Oct-05 05:53N 48°55' W 123°41'0 0.0
2017-Oct-05 05:29N 48°55' W 123°41'0 0.0
2017-Oct-05 04:59N 48°55' W 123°41'0 0.0
2017-Oct-05 04:17N 48°55' W 123°41'0 0.0
2017-Oct-05 03:53N 48°55' W 123°41'0 0.0
2017-Oct-05 03:20N 48°55' W 123°41'0 0.0
2017-Oct-05 02:59N 48°55' W 123°41'0 0.0
2017-Oct-05 02:29N 48°55' W 123°41'0 0.0
2017-Oct-05 02:00N 48°55' W 123°41'0 0.0
2017-Oct-05 01:30N 48°55' W 123°41'0 0.0
2017-Oct-05 01:00N 48°55' W 123°41'0 0.1
2017-Oct-05 00:30N 48°55' W 123°41'1 1.7
2017-Oct-05 00:00N 48°56' W 123°40'2 4.0
2017-Oct-04 23:30N 48°55' W 123°38'3 5.6
2017-Oct-04 22:58N 48°57' W 123°35'4 8.8
2017-Oct-04 22:30N 48°55' W 123°29'510.1
2017-Oct-04 22:00N 48°51' W 123°24'5 9.9
2017-Oct-04 21:30N 48°47' W 123°20'510.0
2017-Oct-04 20:59N 48°43' W 123°16'510.1
2017-Oct-04 20:30N 48°38' W 123°14'5 9.7
2017-Oct-04 20:00N 48°33' W 123°12'4 8.8
2017-Oct-04 19:30N 48°29' W 123°10'4 8.9
2017-Oct-04 19:00N 48°25' W 123°10'4 8.7
2017-Oct-04 18:30N 48°20' W 123°12'5 8.7
2017-Oct-04 17:55N 48°16' W 123°15'4 8.6
2017-Oct-04 17:30N 48°13' W 123°18'4 8.7
2017-Oct-04 17:00N 48°09' W 123°22'2 4.2
2017-Oct-04 16:30N 48°08' W 123°24'3 6.5
2017-Oct-04 16:00N 48°10' W 123°28'2 4.9
2017-Oct-04 15:30N 48°12' W 123°31'3 6.5
2017-Oct-04 15:00N 48°12' W 123°36'3 6.8
2017-Oct-04 14:30N 48°12' W 123°41'3 6.1
2017-Oct-04 13:58N 48°12' W 123°45'3 6.5
2017-Oct-04 13:30N 48°12' W 123°50'3 6.7
2017-Oct-04 12:59N 48°12' W 123°55'3 6.8
2017-Oct-04 12:30N 48°14' W 123°60'4 6.9
2017-Oct-04 11:59N 48°15' W 124°05'3 6.9
2017-Oct-04 11:30N 48°17' W 124°09'3 6.8
2017-Oct-04 11:00N 48°18' W 124°14'2 4.9
2017-Oct-04 10:30N 48°19' W 124°17'4 8.2
2017-Oct-04 10:00N 48°21' W 124°23'4 8.5
2017-Oct-04 09:30N 48°23' W 124°28'4 8.5
2017-Oct-04 09:00N 48°24' W 124°34'5 9.5
2017-Oct-04 08:30N 48°26' W 124°41'4 8.4
2017-Oct-04 08:00N 48°26' W 124°47'5 9.7
2017-Oct-04 07:30N 48°21' W 124°51'5 9.7
2017-Oct-04 06:58N 48°17' W 124°54'41 8.5
2017-Oct-04 02:11N 47°36' W 124°45'2 8.8
2017-Oct-04 01:59N 47°35' W 124°45'6 8.7
2017-Oct-04 01:19N 47°29' W 124°43'3 8.3
2017-Oct-04 01:00N 47°26' W 124°42'4 8.3
2017-Oct-04 00:30N 47°22' W 124°40'4 8.5
2017-Oct-04 00:00N 47°18' W 124°39'4 8.7
2017-Oct-03 23:30N 47°14' W 124°37'6 8.8
2017-Oct-03 22:52N 47°09' W 124°35'5 8.7
2017-Oct-03 22:17N 47°04' W 124°33'3 8.9
2017-Oct-03 22:00N 47°01' W 124°32'4 8.9
2017-Oct-03 21:30N 46°57' W 124°30'4 8.9
2017-Oct-03 21:00N 46°53' W 124°29'4 8.9
2017-Oct-03 20:31N 46°48' W 124°28'4 8.6
2017-Oct-03 20:00N 46°44' W 124°27'4 8.5
2017-Oct-03 19:31N 46°40' W 124°26'4 8.4
2017-Oct-03 19:00N 46°36' W 124°25'4 8.6
2017-Oct-03 18:30N 46°31' W 124°24'4 8.8
2017-Oct-03 18:00N 46°27' W 124°22'4 8.6
2017-Oct-03 17:30N 46°23' W 124°21'4 8.8
2017-Oct-03 17:00N 46°19' W 124°19'4 8.8
2017-Oct-03 16:31N 46°15' W 124°16'5 9.0
2017-Oct-03 16:00N 46°11' W 124°12'6 8.7
2017-Oct-03 15:22N 46°06' W 124°10'3 8.8
2017-Oct-03 15:00N 46°03' W 124°09'9 9.1
2017-Oct-03 14:00N 45°54' W 124°07'5 9.0
2017-Oct-03 13:30N 45°50' W 124°06'4 8.9
2017-Oct-03 13:00N 45°45' W 124°06'5 9.1
2017-Oct-03 12:31N 45°41' W 124°05'4 8.7
2017-Oct-03 12:01N 45°36' W 124°04'4 8.7
2017-Oct-03 11:31N 45°32' W 124°04'4 8.7
2017-Oct-03 11:00N 45°28' W 124°04'4 8.5
2017-Oct-03 10:29N 45°23' W 124°05'4 8.5
2017-Oct-03 10:00N 45°19' W 124°05'7 0.2
2017-Oct-02 02:32N 45°27' W 124°05'011.9
2017-Oct-02 02:29N 45°27' W 124°05'612.4
2017-Oct-02 01:59N 45°33' W 124°04'612.1
2017-Oct-02 01:30N 45°39' W 124°05'612.1
2017-Oct-02 01:01N 45°45' W 124°05'612.0
2017-Oct-02 00:31N 45°51' W 124°07'611.9
2017-Oct-02 00:00N 45°57' W 124°08'611.7
2017-Oct-01 23:30N 46°03' W 124°09'612.2
2017-Oct-01 23:00N 46°09' W 124°10'611.5
2017-Oct-01 22:30N 46°14' W 124°07'1110.2
2017-Oct-01 21:26N 46°11' W 123°52'1 2.4
2017-Oct-01 21:01N 46°12' W 123°50'0 0.0
2017-Oct-01 20:30N 46°12' W 123°50'0 0.0
2017-Oct-01 20:01N 46°12' W 123°50'0 0.0
2017-Oct-01 19:31N 46°12' W 123°50'0 0.0
2017-Oct-01 19:01N 46°12' W 123°50'0 0.0
2017-Oct-01 18:31N 46°12' W 123°50'0 0.0
2017-Oct-01 18:01N 46°12' W 123°50'0 0.0
2017-Oct-01 17:31N 46°12' W 123°50'1 1.9
2017-Oct-01 17:01N 46°11' W 123°52'0 0.1
2017-Oct-01 16:26N 46°11' W 123°52'0 0.0
2017-Oct-01 16:01N 46°11' W 123°52'0 0.0
2017-Oct-01 15:31N 46°11' W 123°52'0 0.0
2017-Oct-01 15:01N 46°11' W 123°52'0 0.0
2017-Oct-01 14:31N 46°11' W 123°52'0 0.0
2017-Oct-01 14:01N 46°11' W 123°52'0 0.0
2017-Oct-01 13:30N 46°11' W 123°52'0 0.0
2017-Oct-01 13:01N 46°11' W 123°52'0 0.0
2017-Oct-01 12:30N 46°11' W 123°52'0 0.0
2017-Oct-01 12:01N 46°11' W 123°52'0 0.0
2017-Oct-01 11:30N 46°11' W 123°52'0 0.0
2017-Oct-01 11:01N 46°11' W 123°52'0 0.0
2017-Oct-01 10:31N 46°11' W 123°52'0 0.0
2017-Oct-01 10:00N 46°11' W 123°52'0 0.0
2017-Oct-01 09:31N 46°11' W 123°52'0 0.0
2017-Oct-01 09:01N 46°11' W 123°52'0 0.0
2017-Oct-01 08:30N 46°11' W 123°52'0 0.0
2017-Oct-01 08:00N 46°11' W 123°52'0 0.0
2017-Oct-01 07:30N 46°11' W 123°52'0 0.0
2017-Oct-01 07:00N 46°11' W 123°52'0 0.0
2017-Oct-01 06:31N 46°11' W 123°52'0 0.3
2017-Oct-01 06:01N 46°11' W 123°52'510.1
2017-Oct-01 05:30N 46°13' W 123°45'5 9.5
2017-Oct-01 05:00N 46°15' W 123°39'5 9.5
2017-Oct-01 04:30N 46°16' W 123°32'4 7.2
2017-Oct-01 04:00N 46°15' W 123°27'6 6.8
2017-Oct-01 03:08N 46°09' W 123°24'0 0.1
2017-Oct-01 03:00N 46°09' W 123°24'  

Dump ship's entire track history